createdAt,value
2023-02-11T00:02:29.772Z,101929.97
2023-02-11T00:04:57.961Z,101934.72
2023-02-11T00:07:26.176Z,101933.72
2023-02-11T00:09:54.423Z,101928.41
2023-02-11T00:12:23.910Z,101923.03
2023-02-11T00:14:52.086Z,101929.53
2023-02-11T00:17:23.544Z,101920.50
2023-02-11T00:19:52.344Z,101922.13
2023-02-11T00:22:20.586Z,101916.00
2023-02-11T00:24:49.009Z,101916.81
2023-02-11T00:27:17.305Z,101908.09
2023-02-11T00:29:47.094Z,101914.38
2023-02-11T00:32:15.206Z,101917.81
2023-02-11T00:34:43.361Z,101911.88
2023-02-11T00:37:12.269Z,101916.25
2023-02-11T00:39:40.422Z,101911.13
2023-02-11T00:42:08.525Z,101910.25
2023-02-11T00:44:36.638Z,101901.31
2023-02-11T00:47:06.238Z,101916.88
2023-02-11T00:49:34.428Z,101909.44
2023-02-11T00:52:02.571Z,101921.63
2023-02-11T00:54:30.701Z,101915.97
2023-02-11T00:56:58.828Z,101909.72
2023-02-11T00:59:27.085Z,101905.72
2023-02-11T01:01:55.325Z,101896.47
2023-02-11T01:04:24.893Z,101895.50
2023-02-11T01:06:53.016Z,101886.81
2023-02-11T01:09:22.047Z,101888.31
2023-02-11T01:11:50.159Z,101872.84
2023-02-11T01:14:18.246Z,101870.41
2023-02-11T01:16:46.536Z,101874.41
2023-02-11T01:19:14.748Z,101870.72
2023-02-11T01:21:44.314Z,101860.78
2023-02-11T01:24:12.442Z,101859.53
2023-02-11T01:26:40.611Z,101859.97
2023-02-11T01:29:09.586Z,101853.66
2023-02-11T01:31:37.803Z,101845.91
2023-02-11T01:34:06.010Z,101849.16
2023-02-11T01:36:34.140Z,101846.44
2023-02-11T01:39:03.635Z,101851.22
2023-02-11T01:41:31.749Z,101850.03
2023-02-11T01:43:59.887Z,101852.25
2023-02-11T01:46:33.291Z,101848.66
2023-02-11T01:49:07.261Z,101849.00
2023-02-11T01:51:40.014Z,101844.53
2023-02-11T01:54:27.896Z,101847.72
2023-02-11T01:57:17.354Z,101847.41
2023-02-11T02:00:04.021Z,101843.13
2023-02-11T02:02:38.234Z,101843.13
2023-02-11T02:05:11.232Z,101839.69
2023-02-11T02:07:47.332Z,101832.69
2023-02-11T02:10:22.264Z,101836.28
2023-02-11T02:12:50.491Z,101830.41
2023-02-11T02:15:28.503Z,101835.38
2023-02-11T02:18:04.986Z,101835.13
2023-02-11T02:21:01.728Z,101831.53
2023-02-11T02:23:40.340Z,101839.13
2023-02-11T02:26:40.073Z,101840.81
2023-02-11T02:29:32.579Z,101834.75
2023-02-11T02:32:31.582Z,101838.19
2023-02-11T02:35:07.116Z,101830.25
2023-02-11T02:37:41.764Z,101824.94
2023-02-11T02:40:14.205Z,101820.50
2023-02-11T02:42:43.390Z,101827.63
2023-02-11T02:45:13.865Z,101818.31
2023-02-11T02:47:43.378Z,101828.53
2023-02-11T02:50:14.617Z,101824.03
2023-02-11T02:52:51.328Z,101817.88
2023-02-11T02:55:35.163Z,101823.81
2023-02-11T02:58:35.770Z,101822.25
2023-02-11T03:01:13.647Z,101818.09
2023-02-11T03:03:54.965Z,101822.63
2023-02-11T03:06:30.988Z,101812.22
2023-02-11T03:09:05.672Z,101806.00
2023-02-11T03:11:35.562Z,101803.19
2023-02-11T03:14:05.862Z,101805.50
2023-02-11T03:16:39.337Z,101802.94
2023-02-11T03:19:13.811Z,101801.84
2023-02-11T03:21:44.775Z,101803.47
2023-02-11T03:24:18.072Z,101808.47
2023-02-11T03:26:51.316Z,101800.91
2023-02-11T03:29:28.700Z,101801.69
2023-02-11T03:32:03.986Z,101797.63
2023-02-11T03:34:39.872Z,101800.00
2023-02-11T03:37:13.337Z,101794.69
2023-02-11T03:39:45.802Z,101790.41
2023-02-11T03:42:16.393Z,101787.72
2023-02-11T03:44:50.619Z,101781.78
2023-02-11T03:47:24.256Z,101772.91
2023-02-11T03:49:56.716Z,101760.19
2023-02-11T03:52:27.924Z,101764.41
2023-02-11T03:54:59.328Z,101755.81
2023-02-11T03:57:27.413Z,101749.91
2023-02-11T03:59:57.481Z,101750.66
2023-02-11T04:02:28.737Z,101741.50
2023-02-11T04:04:58.685Z,101740.59
2023-02-11T04:07:27.431Z,101732.69
2023-02-11T04:09:55.810Z,101737.91
2023-02-11T04:12:24.089Z,101730.06
2023-02-11T04:14:52.227Z,101735.06
2023-02-11T04:17:20.353Z,101726.34
2023-02-11T04:19:48.513Z,101724.41
2023-02-11T04:22:18.022Z,101717.41
2023-02-11T04:24:46.137Z,101719.03
2023-02-11T04:27:14.259Z,101710.41
2023-02-11T04:29:42.409Z,101713.78
2023-02-11T04:32:11.326Z,101719.75
2023-02-11T04:34:39.858Z,101715.44
2023-02-11T04:37:08.523Z,101716.31
2023-02-11T04:39:38.299Z,101721.28
2023-02-11T04:42:06.847Z,101709.97
2023-02-11T04:44:35.229Z,101718.44
2023-02-11T04:47:03.322Z,101721.00
2023-02-11T04:49:31.423Z,101722.59
2023-02-11T04:51:59.497Z,101718.16
2023-02-11T04:54:27.637Z,101720.69
2023-02-11T04:56:57.173Z,101723.13
2023-02-11T04:59:25.317Z,101721.50
2023-02-11T05:01:53.411Z,101716.41
2023-02-11T05:04:21.666Z,101721.25
2023-02-11T05:06:50.018Z,101727.75
2023-02-11T05:09:18.355Z,101727.81
2023-02-11T05:11:46.456Z,101725.88
2023-02-11T05:14:16.013Z,101730.25
2023-02-11T05:16:44.214Z,101732.66
2023-02-11T05:19:12.603Z,101731.72
2023-02-11T05:21:50.314Z,101726.69
2023-02-11T05:24:24.935Z,101721.13
2023-02-11T05:26:53.079Z,101725.00
2023-02-11T05:29:22.741Z,101723.22
2023-02-11T05:31:50.876Z,101722.25
2023-02-11T05:34:18.928Z,101721.56
2023-02-11T05:36:47.102Z,101713.00
2023-02-11T05:39:15.239Z,101712.41
2023-02-11T05:41:43.349Z,101707.66
2023-02-11T05:44:11.501Z,101707.91
2023-02-11T05:46:41.135Z,101715.78
2023-02-11T05:49:09.380Z,101705.56
2023-02-11T05:51:37.501Z,101709.03
2023-02-11T05:54:05.940Z,101699.91
2023-02-11T05:56:34.090Z,101701.16
2023-02-11T05:59:02.264Z,101705.47
2023-02-11T06:01:30.632Z,101701.09
2023-02-11T06:04:00.370Z,101702.25
2023-02-11T06:06:29.439Z,101709.38
2023-02-11T06:08:57.654Z,101714.09
2023-02-11T06:11:25.735Z,101717.78
2023-02-11T06:13:53.984Z,101713.03
2023-02-11T06:16:22.190Z,101713.53
2023-02-11T06:18:50.302Z,101716.25
2023-02-11T06:21:19.816Z,101717.13
2023-02-11T06:23:48.002Z,101710.38
2023-02-11T06:26:19.702Z,101707.16
2023-02-11T06:28:48.276Z,101707.34
2023-02-11T06:31:17.414Z,101691.91
2023-02-11T06:33:45.813Z,101699.75
2023-02-11T06:36:16.113Z,101694.72
2023-02-11T06:38:47.324Z,101703.53
2023-02-11T06:41:17.721Z,101707.25
2023-02-11T06:43:45.812Z,101697.25
2023-02-11T06:46:14.206Z,101698.41
2023-02-11T06:48:44.822Z,101694.34
2023-02-11T06:51:14.747Z,101698.19
2023-02-11T06:53:45.742Z,101692.50
2023-02-11T06:56:16.784Z,101689.44
2023-02-11T06:58:45.346Z,101684.47
2023-02-11T07:01:16.150Z,101694.25
2023-02-11T07:03:46.916Z,101690.16
2023-02-11T07:06:17.605Z,101688.63
2023-02-11T07:08:47.748Z,101685.41
2023-02-11T07:11:17.760Z,101685.59
2023-02-11T07:13:45.905Z,101681.47
2023-02-11T07:16:16.462Z,101681.63
2023-02-11T07:18:44.909Z,101684.56
2023-02-11T07:21:14.956Z,101677.91
2023-02-11T07:23:43.629Z,101686.88
2023-02-11T07:26:15.636Z,101679.47
2023-02-11T07:28:44.539Z,101689.41
2023-02-11T07:31:14.374Z,101686.31
2023-02-11T07:33:43.230Z,101684.03
2023-02-11T07:36:12.160Z,101687.03
2023-02-11T07:38:40.661Z,101675.91
2023-02-11T07:41:11.756Z,101678.72
2023-02-11T07:43:41.668Z,101668.44
2023-02-11T07:46:12.672Z,101678.13
2023-02-11T07:48:40.859Z,101664.28
2023-02-11T07:51:10.741Z,101659.16
2023-02-11T07:53:39.162Z,101667.06
2023-02-11T07:56:09.120Z,101667.00
2023-02-11T07:58:38.042Z,101663.63
2023-02-11T08:01:09.724Z,101666.22
2023-02-11T08:03:39.287Z,101657.66
2023-02-11T08:06:09.213Z,101657.63
2023-02-11T08:08:37.599Z,101665.50
2023-02-11T08:11:09.172Z,101665.63
2023-02-11T08:13:37.633Z,101664.84
2023-02-11T08:16:08.670Z,101665.84
2023-02-11T08:18:37.627Z,101661.63
2023-02-11T08:21:07.077Z,101669.41
2023-02-11T08:23:35.461Z,101664.25
2023-02-11T08:26:04.121Z,101664.38
2023-02-11T08:28:32.551Z,101663.63
2023-02-11T08:31:09.038Z,101658.38
2023-02-11T08:33:37.825Z,101656.72
2023-02-11T08:36:09.990Z,101655.03
2023-02-11T08:38:38.470Z,101660.25
2023-02-11T08:41:06.742Z,101667.19
2023-02-11T08:43:35.004Z,101662.91
2023-02-11T08:46:03.217Z,101662.97
2023-02-11T08:48:32.806Z,101650.88
2023-02-11T08:51:01.175Z,101647.44
2023-02-11T08:53:29.290Z,101655.19
2023-02-11T08:55:57.462Z,101654.38
2023-02-11T08:58:25.557Z,101654.41
2023-02-11T09:00:54.054Z,101661.38
2023-02-11T09:03:22.366Z,101652.72
2023-02-11T09:05:53.436Z,101648.41
2023-02-11T09:08:22.327Z,101651.84
2023-02-11T09:10:50.762Z,101651.88
2023-02-11T09:13:19.108Z,101631.94
2023-02-11T09:15:47.643Z,101628.47
2023-02-11T09:18:16.044Z,101631.91
2023-02-11T09:20:44.131Z,101642.34
2023-02-11T09:23:13.744Z,101631.91
2023-02-11T09:25:42.379Z,101630.13
2023-02-11T09:28:11.674Z,101618.78
2023-02-11T09:30:40.098Z,101612.66
2023-02-11T09:33:08.309Z,101612.56
2023-02-11T09:35:36.474Z,101613.34
2023-02-11T09:38:04.589Z,101611.53
2023-02-11T09:40:35.163Z,101606.16
2023-02-11T09:43:09.016Z,101618.34
2023-02-11T09:45:37.179Z,101618.28
2023-02-11T09:48:11.919Z,101605.22
2023-02-11T09:50:44.775Z,101606.91
2023-02-11T09:53:19.437Z,101601.78
2023-02-11T09:55:55.915Z,101592.09
2023-02-11T09:58:28.080Z,101585.88
2023-02-11T10:01:08.790Z,101596.31
2023-02-11T10:04:02.449Z,101588.47
2023-02-11T10:06:39.990Z,101596.25
2023-02-11T10:09:20.081Z,101593.50
2023-02-11T10:11:58.279Z,101589.22
2023-02-11T10:14:45.491Z,101580.44
2023-02-11T10:17:24.332Z,101575.13
2023-02-11T10:20:04.740Z,101588.28
2023-02-11T10:22:37.338Z,101583.94
2023-02-11T10:25:19.772Z,101574.56
2023-02-11T10:27:49.954Z,101577.09
2023-02-11T10:30:25.480Z,101569.97
2023-02-11T10:32:59.021Z,101563.00
2023-02-11T10:35:27.621Z,101561.53
2023-02-11T10:37:56.542Z,101553.84
2023-02-11T10:40:27.656Z,101564.41
2023-02-11T10:43:00.709Z,101554.19
2023-02-11T10:45:34.400Z,101553.25
2023-02-11T10:48:03.117Z,101542.84
2023-02-11T10:50:34.971Z,101535.91
2023-02-11T10:53:14.665Z,101529.63
2023-02-11T10:55:51.786Z,101534.81
2023-02-11T10:58:27.872Z,101529.44
2023-02-11T11:00:58.162Z,101531.91
2023-02-11T11:03:28.787Z,101522.88
2023-02-11T11:05:59.847Z,101521.56
2023-02-11T11:08:40.842Z,101516.78
2023-02-11T11:11:11.684Z,101500.88
2023-02-11T11:13:43.492Z,101505.75
2023-02-11T11:16:23.530Z,101497.00
2023-02-11T11:18:53.763Z,101496.00
2023-02-11T11:21:25.178Z,101483.59
2023-02-11T11:23:57.264Z,101492.22
2023-02-11T11:26:27.269Z,101489.00
2023-02-11T11:29:01.155Z,101472.41
2023-02-11T11:31:34.763Z,101477.38
2023-02-11T11:34:18.698Z,101477.06
2023-02-11T11:36:47.217Z,101469.44
2023-02-11T11:39:26.134Z,101463.16
2023-02-11T11:41:56.708Z,101458.47
2023-02-11T11:44:29.975Z,101443.16
2023-02-11T11:47:28.338Z,101449.81
2023-02-11T11:50:21.208Z,101443.75
2023-02-11T11:52:55.836Z,101431.06
2023-02-11T11:55:28.410Z,101440.06
2023-02-11T11:57:56.606Z,101438.41
2023-02-11T12:00:35.575Z,101424.16
2023-02-11T12:03:26.200Z,101433.16
2023-02-11T12:06:07.537Z,101426.88
2023-02-11T12:08:44.505Z,101418.22
2023-02-11T12:11:21.842Z,101418.53
2023-02-11T12:14:05.155Z,101405.16
2023-02-11T12:16:44.593Z,101388.66
2023-02-11T12:19:37.197Z,101384.94
2023-02-11T12:22:12.550Z,101366.53
2023-02-11T12:24:54.312Z,101366.53
2023-02-11T12:27:33.715Z,101357.84
2023-02-11T12:30:12.332Z,101347.88
2023-02-11T12:32:49.401Z,101345.34
2023-02-11T12:35:27.706Z,101348.41
2023-02-11T12:38:16.361Z,101349.81
2023-02-11T12:40:47.645Z,101345.25
2023-02-11T12:43:22.473Z,101336.16
2023-02-11T12:46:23.573Z,101343.13
2023-02-11T12:49:20.982Z,101338.47
2023-02-11T12:52:15.804Z,101337.66
2023-02-11T12:54:48.510Z,101346.28
2023-02-11T12:57:19.384Z,101329.94
2023-02-11T12:59:56.804Z,101319.13
2023-02-11T13:02:35.785Z,101299.13
2023-02-11T13:05:14.276Z,101305.50
2023-02-11T13:07:48.467Z,101316.56
2023-02-11T13:10:28.482Z,101317.53
2023-02-11T13:13:18.767Z,101323.78
2023-02-11T13:15:51.609Z,101319.75
2023-02-11T13:18:36.020Z,101314.19
2023-02-11T13:21:30.932Z,101310.56
2023-02-11T13:24:09.756Z,101299.78
2023-02-11T13:26:44.241Z,101285.53
2023-02-11T13:29:25.892Z,101287.13
2023-02-11T13:31:56.733Z,101283.81
2023-02-11T13:34:27.683Z,101287.84
2023-02-11T13:36:59.641Z,101292.94
2023-02-11T13:39:28.237Z,101287.19
2023-02-11T13:42:05.845Z,101278.56
2023-02-11T13:44:36.181Z,101281.56
2023-02-11T13:47:06.731Z,101275.81
2023-02-11T13:49:40.992Z,101282.03
2023-02-11T13:52:25.396Z,101291.78
2023-02-11T13:54:58.862Z,101288.69
2023-02-11T13:57:35.353Z,101292.97
2023-02-11T14:00:09.814Z,101283.97
2023-02-11T14:02:56.211Z,101286.88
2023-02-11T14:05:49.877Z,101286.50
2023-02-11T14:08:45.307Z,101290.34
2023-02-11T14:11:48.493Z,101279.44
2023-02-11T14:14:24.068Z,101264.47
2023-02-11T14:17:34.216Z,101266.94
2023-02-11T14:20:06.058Z,101262.66
2023-02-11T14:22:47.324Z,101277.69
2023-02-11T14:25:24.085Z,101284.94
2023-02-11T14:27:57.583Z,101293.94
2023-02-11T14:30:44.478Z,101299.00
2023-02-11T14:33:47.453Z,101303.44
2023-02-11T14:36:44.955Z,101298.28
2023-02-11T14:39:24.245Z,101297.59
2023-02-11T14:41:55.069Z,101302.91
2023-02-11T14:44:26.724Z,101312.59
2023-02-11T14:46:56.770Z,101304.78
2023-02-11T14:49:29.410Z,101299.72
2023-02-11T14:52:06.703Z,101299.78
2023-02-11T14:54:36.795Z,101296.16
2023-02-11T14:57:15.152Z,101296.16
2023-02-11T14:59:59.238Z,101284.72
2023-02-11T15:02:34.111Z,101273.50
2023-02-11T15:05:21.606Z,101282.38
2023-02-11T15:07:55.810Z,101272.19
2023-02-11T15:10:35.013Z,101262.66
2023-02-11T15:13:07.209Z,101266.31
2023-02-11T15:15:38.201Z,101264.75
2023-02-11T15:18:07.377Z,101267.50
2023-02-11T15:20:37.482Z,101254.47
2023-02-11T15:23:10.209Z,101255.31
2023-02-11T15:25:46.862Z,101253.69
2023-02-11T15:28:24.284Z,101252.06
2023-02-11T15:30:59.820Z,101252.16
2023-02-11T15:33:32.868Z,101252.16
2023-02-11T15:36:03.148Z,101247.09
2023-02-11T15:38:32.114Z,101248.97
2023-02-11T15:41:07.725Z,101241.16
2023-02-11T15:43:47.004Z,101237.81
2023-02-11T15:46:20.186Z,101230.88
2023-02-11T15:48:52.822Z,101231.91
2023-02-11T15:51:26.266Z,101224.16
2023-02-11T15:54:01.114Z,101226.84
2023-02-11T15:56:33.963Z,101233.94
2023-02-11T15:59:26.619Z,101233.16
2023-02-11T16:02:01.750Z,101227.97
2023-02-11T16:04:31.428Z,101190.78
2023-02-11T16:07:04.261Z,101223.72
2023-02-11T16:09:36.917Z,101219.47
2023-02-11T16:12:24.438Z,101228.25
2023-02-11T16:15:46.028Z,101208.31
2023-02-11T16:18:37.392Z,101211.94
2023-02-11T16:21:11.377Z,101209.38
2023-02-11T16:23:44.134Z,101206.84
2023-02-11T16:26:16.322Z,101201.72
2023-02-11T16:28:46.042Z,101200.06
2023-02-11T16:31:16.851Z,101191.44
2023-02-11T16:33:48.195Z,101201.94
2023-02-11T16:36:19.135Z,101206.31
2023-02-11T16:38:48.120Z,101216.84
2023-02-11T16:41:17.987Z,101220.31
2023-02-11T16:43:46.876Z,101228.16
2023-02-11T16:46:18.728Z,101229.94
2023-02-11T16:48:48.839Z,101225.56
2023-02-11T16:51:18.573Z,101215.13
2023-02-11T16:53:47.831Z,101215.13
2023-02-11T16:56:19.765Z,101205.56
2023-02-11T16:58:49.392Z,101198.63
2023-02-11T17:01:20.810Z,101197.78
2023-02-11T17:03:50.808Z,101197.78
2023-02-11T17:06:20.665Z,101198.69
2023-02-11T17:08:49.807Z,101200.38
2023-02-11T17:11:21.386Z,101207.34
2023-02-11T17:13:51.258Z,101212.56
2023-02-11T17:16:25.480Z,101202.09
2023-02-11T17:18:55.497Z,101203.00
2023-02-11T17:21:28.210Z,101209.97
2023-02-11T17:23:59.205Z,101210.00
2023-02-11T17:26:28.284Z,101203.13
2023-02-11T17:28:59.342Z,101201.47
2023-02-11T17:31:29.774Z,101219.78
2023-02-11T17:33:59.429Z,101212.88
2023-02-11T17:36:31.991Z,101220.72
2023-02-11T17:39:02.088Z,101212.94
2023-02-11T17:41:31.758Z,101219.88
2023-02-11T17:44:02.023Z,101228.56
2023-02-11T17:46:32.577Z,101224.22
2023-02-11T17:49:02.592Z,101219.84
2023-02-11T17:51:34.541Z,101213.75
2023-02-11T17:54:05.965Z,101209.38
2023-02-11T17:56:36.864Z,101211.13
2023-02-11T17:59:08.552Z,101216.31
2023-02-11T18:01:41.485Z,101205.84
2023-02-11T18:04:14.408Z,101206.66
2023-02-11T18:06:45.575Z,101202.34
2023-02-11T18:09:15.729Z,101192.78
2023-02-11T18:11:45.553Z,101185.81
2023-02-11T18:14:14.656Z,101185.84
2023-02-11T18:16:46.553Z,101173.69
2023-02-11T18:19:16.624Z,101178.84
2023-02-11T18:21:49.377Z,101174.53
2023-02-11T18:24:18.579Z,101171.16
2023-02-11T18:26:47.553Z,101174.66
2023-02-11T18:29:17.259Z,101173.81
2023-02-11T18:31:48.710Z,101170.34
2023-02-11T18:34:18.748Z,101177.25
2023-02-11T18:36:48.393Z,101168.66
2023-02-11T18:39:22.213Z,101163.47
2023-02-11T18:41:55.607Z,101174.81
2023-02-11T18:44:25.348Z,101184.41
2023-02-11T18:46:56.631Z,101189.63
2023-02-11T18:49:29.115Z,101188.75
2023-02-11T18:52:01.431Z,101184.41
2023-02-11T18:54:31.687Z,101169.63
2023-02-11T18:57:01.067Z,101179.19
2023-02-11T18:59:30.538Z,101166.16
2023-02-11T19:02:02.683Z,101177.47
2023-02-11T19:04:32.122Z,101173.09
2023-02-11T19:07:03.785Z,101187.03
2023-02-11T19:09:33.565Z,101189.72
2023-02-11T19:12:03.445Z,101188.00
2023-02-11T19:14:34.843Z,101193.13
2023-02-11T19:17:07.771Z,101180.91
2023-02-11T19:19:38.225Z,101184.31
2023-02-11T19:22:10.530Z,101197.28
2023-02-11T19:24:47.520Z,101201.56
2023-02-11T19:27:30.790Z,101195.44
2023-02-11T19:30:00.685Z,101196.25
2023-02-11T19:32:32.473Z,101196.25
2023-02-11T19:35:02.406Z,101196.22
2023-02-11T19:37:32.095Z,101198.84
2023-02-11T19:40:02.956Z,101193.63
2023-02-11T19:42:33.589Z,101188.41
2023-02-11T19:45:03.482Z,101197.09
2023-02-11T19:47:40.008Z,101191.88
2023-02-11T19:50:11.215Z,101187.47
2023-02-11T19:52:41.542Z,101200.56
2023-02-11T19:55:11.274Z,101201.47
2023-02-11T19:57:41.341Z,101196.31
2023-02-11T20:00:12.787Z,101194.53
2023-02-11T20:02:44.362Z,101186.72
2023-02-11T20:05:14.442Z,101183.28
2023-02-11T20:08:03.657Z,101183.28
2023-02-11T20:10:33.283Z,101175.44
2023-02-11T20:13:04.383Z,101174.56
2023-02-11T20:15:34.009Z,101178.94
2023-02-11T20:18:06.259Z,101177.19
2023-02-11T20:20:36.065Z,101169.41
2023-02-11T20:23:06.147Z,101162.38
2023-02-11T20:25:35.868Z,101166.78
2023-02-11T20:28:05.913Z,101170.25
2023-02-11T20:30:35.029Z,101172.00
2023-02-11T20:33:05.256Z,101185.13
2023-02-11T20:35:35.476Z,101171.22
2023-02-11T20:38:05.308Z,101172.16
2023-02-11T20:40:37.520Z,101167.72
2023-02-11T20:43:06.955Z,101158.13
2023-02-11T20:45:38.116Z,101148.47
2023-02-11T20:48:08.922Z,101143.06
2023-02-11T20:50:38.922Z,101123.50
2023-02-11T20:53:11.385Z,101120.56
2023-02-11T20:55:42.121Z,101119.44
2023-02-11T20:58:12.784Z,101104.63
2023-02-11T21:00:42.330Z,101110.75
2023-02-11T21:03:14.059Z,101111.56
2023-02-11T21:05:44.306Z,101112.47
2023-02-11T21:08:13.531Z,101114.22
2023-02-11T21:10:43.483Z,101119.34
2023-02-11T21:13:15.485Z,101091.47
2023-02-11T21:15:47.854Z,101109.75
2023-02-11T21:18:19.422Z,101104.59
2023-02-11T21:20:48.493Z,101105.47
2023-02-11T21:23:18.292Z,101110.69
2023-02-11T21:25:47.681Z,101105.47
2023-02-11T21:28:17.571Z,101103.78
2023-02-11T21:30:47.584Z,101111.66
2023-02-11T21:33:22.309Z,101117.63
2023-02-11T21:35:51.365Z,101122.78
2023-02-11T21:38:23.572Z,101114.06
2023-02-11T21:40:55.909Z,101102.81
2023-02-11T21:43:25.583Z,101106.22
2023-02-11T21:45:55.087Z,101105.41
2023-02-11T21:48:26.307Z,101095.84
2023-02-11T21:50:56.660Z,101102.81
2023-02-11T21:53:34.912Z,101108.09
2023-02-11T21:56:08.264Z,101092.38
2023-02-11T21:58:38.799Z,101097.66
2023-02-11T22:01:13.266Z,101099.50
2023-02-11T22:03:44.628Z,101083.00
2023-02-11T22:06:14.793Z,101089.19
2023-02-11T22:08:44.250Z,101085.78
2023-02-11T22:11:14.129Z,101095.47
2023-02-11T22:13:42.982Z,101108.53
2023-02-11T22:16:13.515Z,101105.94
2023-02-11T22:18:45.917Z,101109.44
2023-02-11T22:21:15.795Z,101111.25
2023-02-11T22:23:44.403Z,101111.31
2023-02-11T22:26:15.198Z,101122.63
2023-02-11T22:28:43.968Z,101113.84
2023-02-11T22:31:13.784Z,101125.13
2023-02-11T22:33:44.211Z,101123.44
2023-02-11T22:36:16.787Z,101117.34
2023-02-11T22:38:45.141Z,101125.25
2023-02-11T22:41:13.881Z,101131.38
2023-02-11T22:43:44.217Z,101120.03
2023-02-11T22:46:15.872Z,101129.69
2023-02-11T22:48:45.525Z,101126.22
2023-02-11T22:51:16.091Z,101117.56
2023-02-11T22:53:44.833Z,101132.38
2023-02-11T22:56:15.753Z,101118.47
2023-02-11T22:58:44.527Z,101118.50
2023-02-11T23:01:13.893Z,101121.13
2023-02-11T23:03:42.211Z,101092.38
2023-02-11T23:06:12.232Z,101117.66
2023-02-11T23:08:42.996Z,101123.75
2023-02-11T23:11:13.452Z,101133.38
2023-02-11T23:13:42.998Z,101135.97
2023-02-11T23:16:15.245Z,101141.97
2023-02-11T23:18:45.227Z,101142.94
2023-02-11T23:21:17.252Z,101142.97
2023-02-11T23:23:46.406Z,101148.25
2023-02-11T23:26:17.220Z,101147.41
2023-02-11T23:28:46.379Z,101146.56
2023-02-11T23:31:18.884Z,101160.50
2023-02-11T23:33:47.774Z,101139.53
2023-02-11T23:36:17.946Z,101141.34
2023-02-11T23:38:46.717Z,101146.59
2023-02-11T23:41:15.836Z,101149.97
2023-02-11T23:43:43.991Z,101156.91
2023-02-11T23:46:12.899Z,101148.22
2023-02-11T23:48:41.563Z,101149.88
2023-02-11T23:51:10.759Z,101137.81
2023-02-11T23:53:40.869Z,101129.09
2023-02-11T23:56:10.597Z,101136.09
2023-02-11T23:58:39.074Z,101131.72
